Time;durP1;ratioP1;P1;durP2;ratioP2;P2;SDS_P1;SDS_P2;PMS_P1;PMS_P2;Temp;Humidity;BMP_temperature;BMP_pressure;BME280_temperature;BME280_humidity;BME280_pressure;Samples;Min_cycle;Max_cycle;Signal;HPM_P1;HPM_P2
2022/04/27 00:02:01;;;;;;;17.02;7.28;;;;;;;5.58;100.00;102363.72;5204233;28;20108;-70
2022/04/27 00:04:32;;;;;;;16.42;7.82;;;;;;;5.53;100.00;102355.16;5204021;28;20298;-71
2022/04/27 00:07:04;;;;;;;17.35;8.25;;;;;;;5.44;100.00;102357.44;5204178;28;20028;-70
2022/04/27 00:09:35;;;;;;;16.60;8.40;;;;;;;5.39;100.00;102358.69;5204128;28;20061;-70
2022/04/27 00:12:06;;;;;;;14.20;8.15;;;;;;;5.32;100.00;102360.88;5203573;28;20025;-69
2022/04/27 00:14:36;;;;;;;16.55;9.10;;;;;;;5.28;100.00;102348.72;5201414;28;20017;-71
2022/04/27 00:17:07;;;;;;;17.38;7.93;;;;;;;5.24;100.00;102349.84;5204042;28;20017;-70
2022/04/27 00:19:37;;;;;;;22.45;8.75;;;;;;;5.21;100.00;102344.69;5203928;28;20169;-69
2022/04/27 00:22:08;;;;;;;18.83;8.55;;;;;;;5.16;100.00;102349.44;5203768;28;20093;-69
2022/04/27 00:24:39;;;;;;;23.60;8.27;;;;;;;5.30;100.00;102349.44;5203337;28;20110;-69
2022/04/27 00:27:09;;;;;;;18.85;8.38;;;;;;;5.33;100.00;102349.28;5203782;28;20037;-68
2022/04/27 00:29:40;;;;;;;20.98;8.40;;;;;;;5.33;100.00;102353.75;5203809;28;20037;-69
2022/04/27 00:32:10;;;;;;;22.08;8.27;;;;;;;5.32;100.00;102354.66;5204311;28;20029;-70
2022/04/27 00:34:41;;;;;;;17.52;8.63;;;;;;;5.33;100.00;102359.06;5203805;28;20044;-70
2022/04/27 00:37:11;;;;;;;20.05;7.88;;;;;;;5.35;100.00;102351.81;5189231;28;20126;-69
2022/04/27 00:39:42;;;;;;;21.48;8.70;;;;;;;5.36;100.00;102348.22;5197447;28;20057;-69
2022/04/27 00:42:13;;;;;;;20.42;8.73;;;;;;;5.36;100.00;102359.72;5203997;28;20013;-69
2022/04/27 00:44:45;;;;;;;17.75;8.57;;;;;;;5.37;100.00;102358.78;5201804;28;20404;-69
2022/04/27 00:47:18;;;;;;;18.10;8.32;;;;;;;5.36;100.00;102354.38;5203770;28;20522;-70
2022/04/27 00:49:52;;;;;;;16.83;8.32;;;;;;;5.38;100.00;102354.31;5203561;28;20104;-70
2022/04/27 00:52:24;;;;;;;19.37;7.80;;;;;;;5.36;100.00;102353.53;5203719;28;20057;-70
2022/04/27 00:54:55;;;;;;;15.85;8.93;;;;;;;5.40;100.00;102355.91;5205830;28;20079;-70
2022/04/27 00:57:26;;;;;;;17.73;8.55;;;;;;;5.39;100.00;102351.53;5207940;28;20041;-70
2022/04/27 00:59:57;;;;;;;19.30;8.25;;;;;;;5.39;100.00;102354.22;5207272;28;20037;-69
2022/04/27 01:02:27;;;;;;;19.42;9.32;;;;;;;5.40;100.00;102355.06;5207864;28;20386;-70
2022/04/27 01:04:58;;;;;;;26.98;9.63;;;;;;;5.40;100.00;102352.41;5207886;28;20065;-70
2022/04/27 01:07:28;;;;;;;23.58;9.20;;;;;;;5.39;100.00;102361.34;5206690;28;20067;-70
2022/04/27 01:10:00;;;;;;;20.80;8.88;;;;;;;5.35;100.00;102355.34;5207901;28;20025;-70
2022/04/27 01:12:31;;;;;;;16.73;9.13;;;;;;;5.38;100.00;102359.63;5207432;28;20038;-69
2022/04/27 01:15:02;;;;;;;22.50;9.75;;;;;;;5.37;100.00;102361.44;5207476;28;20094;-70
2022/04/27 01:17:33;;;;;;;15.68;9.43;;;;;;;5.48;100.00;102359.91;5207685;28;20380;-69
2022/04/27 01:20:05;;;;;;;25.42;10.57;;;;;;;5.55;100.00;102361.22;5208004;28;20021;-69
2022/04/27 01:22:35;;;;;;;23.00;9.45;;;;;;;5.67;100.00;102371.09;5207540;28;20048;-70
2022/04/27 01:25:06;;;;;;;20.35;8.27;;;;;;;5.71;100.00;102361.97;5206766;28;20108;-69
2022/04/27 01:27:41;;;;;;;21.02;9.60;;;;;;;5.75;100.00;102367.94;5207397;28;20072;-69
2022/04/27 01:30:12;;;;;;;18.20;9.35;;;;;;;5.74;100.00;102361.78;5207527;28;20029;-70
2022/04/27 01:32:42;;;;;;;18.23;10.18;;;;;;;5.73;100.00;102368.06;5207515;28;20029;-70
2022/04/27 01:35:13;;;;;;;21.45;8.77;;;;;;;5.71;100.00;102359.28;5207229;28;20032;-70
2022/04/27 01:40:34;;;;;;;23.42;10.80;;;;;;;5.68;100.00;102367.50;5194676;28;20028;-70
2022/04/27 01:43:04;;;;;;;20.10;10.43;;;;;;;5.69;100.00;102361.22;5207086;28;20099;-71
2022/04/27 01:45:35;;;;;;;17.77;9.93;;;;;;;5.70;100.00;102365.56;5205752;28;20108;-70
2022/04/27 01:48:06;;;;;;;22.55;11.02;;;;;;;5.74;100.00;102374.25;5206601;28;20045;-70
2022/04/27 01:50:38;;;;;;;21.42;10.70;;;;;;;5.71;100.00;102364.63;5206901;28;20398;-70
2022/04/27 01:56:05;;;;;;;28.05;11.55;;;;;;;5.62;100.00;102373.19;5206595;28;20025;-70
2022/04/27 01:58:36;;;;;;;26.65;12.13;;;;;;;5.58;100.00;102366.38;5206970;28;20021;-69
2022/04/27 02:01:11;;;;;;;22.13;10.52;;;;;;;5.52;100.00;102370.25;5206551;28;20036;-70
2022/04/27 02:03:43;;;;;;;22.73;11.68;;;;;;;5.45;100.00;102366.28;5206807;28;20061;-69
2022/04/27 02:06:19;;;;;;;25.10;11.45;;;;;;;5.39;100.00;102371.97;5205339;28;20044;-70
2022/04/27 02:08:53;;;;;;;25.05;11.13;;;;;;;5.32;100.00;102370.63;5206303;28;20061;-69
2022/04/27 02:11:25;;;;;;;28.85;11.35;;;;;;;5.27;100.00;102378.94;5206648;28;20037;-69
2022/04/27 02:13:55;;;;;;;26.60;11.25;;;;;;;5.25;100.00;102386.13;5206376;28;20391;-69
2022/04/27 02:16:28;;;;;;;20.98;11.13;;;;;;;5.26;100.00;102381.66;5206391;28;20033;-69
2022/04/27 02:18:58;;;;;;;21.85;11.38;;;;;;;5.22;100.00;102385.47;5206226;28;20029;-69
2022/04/27 02:21:29;;;;;;;28.17;11.93;;;;;;;5.16;100.00;102389.34;5206194;28;20033;-70
2022/04/27 02:23:59;;;;;;;31.42;12.60;;;;;;;5.15;100.00;102380.53;5206312;28;20470;-70
2022/04/27 02:26:30;;;;;;;22.23;11.63;;;;;;;5.10;100.00;102387.94;5205986;28;20033;-70
2022/04/27 02:29:02;;;;;;;22.77;12.23;;;;;;;5.05;100.00;102382.03;5206109;28;20121;-70
2022/04/27 02:31:32;;;;;;;27.42;12.30;;;;;;;5.01;100.00;102375.19;5206010;28;20021;-70
2022/04/27 02:34:03;;;;;;;24.55;12.32;;;;;;;5.00;100.00;102385.91;5206169;28;20018;-71
2022/04/27 02:36:33;;;;;;;26.40;12.60;;;;;;;4.94;100.00;102382.69;5197068;28;20394;-70
2022/04/27 02:39:04;;;;;;;22.98;11.85;;;;;;;4.91;100.00;102387.31;5194596;28;20032;-69
2022/04/27 02:41:34;;;;;;;29.08;12.45;;;;;;;4.89;100.00;102390.09;5205999;28;20025;-70
2022/04/27 02:44:05;;;;;;;22.92;11.77;;;;;;;4.86;100.00;102387.59;5205721;28;20049;-70
2022/04/27 02:46:37;;;;;;;25.58;12.00;;;;;;;4.82;100.00;102383.44;5204334;28;20041;-71
2022/04/27 02:51:56;;;;;;;26.65;12.48;;;;;;;4.79;100.00;102386.25;5194120;28;20052;-70
2022/04/27 02:54:26;;;;;;;33.08;11.80;;;;;;;4.80;100.00;102384.47;5205396;28;20108;-71
2022/04/27 02:56:57;;;;;;;27.75;13.35;;;;;;;4.77;100.00;102390.81;5205577;28;20029;-69
2022/04/27 02:59:27;;;;;;;29.98;13.02;;;;;;;4.72;100.00;102387.59;5205689;28;20117;-69
2022/04/27 03:01:58;;;;;;;26.90;11.95;;;;;;;4.67;100.00;102387.00;5205834;28;20021;-69
2022/04/27 03:04:28;;;;;;;24.73;13.02;;;;;;;4.63;100.00;102394.28;5205234;28;20026;-69
2022/04/27 03:06:59;;;;;;;26.60;11.80;;;;;;;4.63;100.00;102401.41;5205549;28;20032;-71
2022/04/27 03:09:30;;;;;;;29.95;12.73;;;;;;;4.70;100.00;102393.94;5205260;28;20033;-69
2022/04/27 03:12:00;;;;;;;28.83;11.55;;;;;;;4.70;100.00;102396.59;5205282;28;20418;-69
2022/04/27 03:14:31;;;;;;;27.77;12.90;;;;;;;4.69;100.00;102390.41;5204963;28;20021;-70
2022/04/27 03:17:02;;;;;;;26.27;13.43;;;;;;;4.71;100.00;102398.28;5205309;28;20025;-71
2022/04/27 03:19:32;;;;;;;24.20;11.88;;;;;;;4.72;100.00;102398.22;5204988;28;20081;-69
2022/04/27 03:22:03;;;;;;;33.42;14.73;;;;;;;4.65;100.00;102397.69;5205095;28;20391;-69
2022/04/27 03:24:33;;;;;;;29.15;12.45;;;;;;;4.58;100.00;102403.50;5205119;28;20032;-70
2022/04/27 03:27:05;;;;;;;29.25;13.40;;;;;;;4.53;100.00;102403.75;5204811;28;20024;-70
2022/04/27 03:29:35;;;;;;;23.30;12.88;;;;;;;4.45;100.00;102405.13;5205252;28;20048;-70
2022/04/27 03:32:06;;;;;;;27.65;13.27;;;;;;;4.31;100.00;102409.44;5204647;28;20017;-69
2022/04/27 03:34:37;;;;;;;30.15;13.55;;;;;;;4.19;100.00;102410.13;5204982;28;20513;-70
2022/04/27 03:37:08;;;;;;;27.77;13.68;;;;;;;4.08;100.00;102412.56;5191370;28;20022;-70
2022/04/27 03:39:38;;;;;;;31.80;14.95;;;;;;;3.99;100.00;102413.06;5198146;28;20017;-70
2022/04/27 03:42:08;;;;;;;26.20;13.45;;;;;;;3.90;100.00;102415.28;5205210;28;20045;-70
2022/04/27 03:44:39;;;;;;;27.15;12.60;;;;;;;3.79;100.00;102414.16;5203101;28;20029;-69
2022/04/27 03:47:09;;;;;;;28.02;12.85;;;;;;;3.69;100.00;102418.25;5204846;28;20022;-69
2022/04/27 03:49:40;;;;;;;30.77;14.93;;;;;;;3.64;100.00;102421.16;5204669;28;20061;-69
2022/04/27 03:52:11;;;;;;;33.25;14.88;;;;;;;3.57;100.00;102423.28;5204785;28;20510;-69
2022/04/27 03:54:41;;;;;;;33.33;14.30;;;;;;;3.50;100.00;102423.69;5204289;28;20025;-69
2022/04/27 03:57:11;;;;;;;30.48;14.02;;;;;;;3.44;100.00;102429.34;5204193;28;20028;-69
2022/04/27 03:59:42;;;;;;;33.08;14.13;;;;;;;3.40;100.00;102430.44;5204557;28;20052;-69
2022/04/27 04:02:13;;;;;;;34.08;14.13;;;;;;;3.38;100.00;102426.06;5204509;28;20115;-69
2022/04/27 04:04:43;;;;;;;34.28;14.23;;;;;;;3.37;100.00;102426.16;5204176;28;20459;-69
2022/04/27 04:07:14;;;;;;;34.95;13.68;;;;;;;3.31;100.00;102431.75;5204277;28;20025;-69
2022/04/27 04:09:45;;;;;;;34.63;15.48;;;;;;;3.26;100.00;102425.84;5204055;28;20025;-69
2022/04/27 04:12:15;;;;;;;31.98;14.43;;;;;;;3.22;100.00;102434.91;5204435;28;20104;-69
2022/04/27 04:14:45;;;;;;;30.85;14.07;;;;;;;3.17;100.00;102437.81;5203951;28;20501;-69
2022/04/27 04:17:16;;;;;;;31.95;14.70;;;;;;;3.14;100.00;102434.44;5204226;28;20153;-69
2022/04/27 04:19:47;;;;;;;38.88;16.10;;;;;;;3.10;100.00;102439.03;5204344;28;20036;-69
2022/04/27 04:22:17;;;;;;;35.80;15.60;;;;;;;3.08;100.00;102435.63;5203763;28;20029;-70
2022/04/27 04:30:26;;;;;;;41.40;14.68;;;;;;;3.13;100.00;102444.22;5203105;28;20021;-70
2022/04/27 04:32:56;;;;;;;38.38;16.02;;;;;;;3.15;100.00;102442.31;5204106;28;20048;-69
2022/04/27 04:35:27;;;;;;;42.25;16.05;;;;;;;3.23;100.00;102439.28;5203800;28;20028;-69
2022/04/27 04:37:57;;;;;;;39.85;15.85;;;;;;;3.31;100.00;102455.63;5190498;28;20212;-69
2022/04/27 04:40:28;;;;;;;34.65;15.73;;;;;;;3.44;100.00;102454.06;5203882;28;20029;-69
2022/04/27 04:42:59;;;;;;;46.55;17.65;;;;;;;3.54;100.00;102454.44;5203453;28;20048;-69
2022/04/27 04:45:29;;;;;;;51.25;18.27;;;;;;;3.64;100.00;102460.97;5202547;28;20021;-69
2022/04/27 04:48:00;;;;;;;42.60;17.55;;;;;;;3.73;100.00;102465.78;5204269;28;20090;-69
2022/04/27 04:50:30;;;;;;;43.08;16.98;;;;;;;3.86;100.00;102460.66;5203690;28;20033;-69
2022/04/27 04:53:01;;;;;;;49.97;17.80;;;;;;;3.94;100.00;102468.22;5203850;28;20391;-70
2022/04/27 04:55:32;;;;;;;37.60;17.27;;;;;;;3.99;100.00;102468.81;5203360;28;20013;-70
2022/04/27 04:58:02;;;;;;;48.88;17.90;;;;;;;4.00;100.00;102474.03;5204313;28;20390;-69
2022/04/27 05:00:33;;;;;;;44.22;18.45;;;;;;;4.04;100.00;102475.59;5204402;28;20017;-69
2022/04/27 05:03:03;;;;;;;41.78;18.05;;;;;;;4.07;100.00;102478.09;5203758;28;20048;-70
2022/04/27 05:05:38;;;;;;;44.55;19.40;;;;;;;4.12;100.00;102481.34;5203717;28;20182;-71
2022/04/27 05:08:09;;;;;;;46.22;18.80;;;;;;;4.16;100.00;102480.22;5191172;28;20036;-71
2022/04/27 05:10:40;;;;;;;51.00;19.90;;;;;;;4.20;100.00;102488.03;5203633;28;20040;-70
2022/04/27 05:13:10;;;;;;;42.13;18.13;;;;;;;4.23;100.00;102488.72;5202515;28;20029;-70
2022/04/27 05:15:41;;;;;;;43.88;19.10;;;;;;;4.30;100.00;102491.88;5203206;28;20076;-70
2022/04/27 05:18:11;;;;;;;44.28;17.92;;;;;;;4.35;100.00;102490.69;5203553;28;20530;-70
2022/04/27 05:20:42;;;;;;;47.70;19.17;;;;;;;4.43;100.00;102492.06;5203592;28;20026;-70
2022/04/27 05:23:12;;;;;;;35.95;17.30;;;;;;;4.52;100.00;102502.16;5203629;28;20029;-71
2022/04/27 05:25:43;;;;;;;50.40;18.80;;;;;;;4.58;100.00;102499.19;5203070;28;20045;-70
2022/04/27 05:28:13;;;;;;;54.03;20.20;;;;;;;4.65;100.00;102501.38;5203678;28;20037;-70
2022/04/27 05:33:33;;;;;;;44.63;18.88;;;;;;;4.78;100.00;102508.66;5203525;28;20029;-70
2022/04/27 05:36:03;;;;;;;41.42;19.00;;;;;;;4.85;100.00;102508.22;5199016;28;20482;-70
2022/04/27 05:38:34;;;;;;;47.17;19.33;;;;;;;4.94;100.00;102510.34;5201239;28;20431;-69
2022/04/27 05:41:04;;;;;;;46.08;19.13;;;;;;;5.06;100.00;102507.91;5204346;28;20544;-70
2022/04/27 05:43:35;;;;;;;40.88;19.00;;;;;;;5.18;100.00;102508.06;5206715;28;20398;-70
2022/04/27 05:46:06;;;;;;;42.17;18.13;;;;;;;5.32;100.00;102512.56;5205576;28;20033;-70
2022/04/27 05:48:37;;;;;;;40.88;17.35;;;;;;;5.48;100.00;102517.81;5207055;28;20108;-70
2022/04/27 05:51:07;;;;;;;40.47;17.45;;;;;;;5.78;100.00;102520.44;5206734;28;20213;-70
2022/04/27 05:53:41;;;;;;;35.83;18.38;;;;;;;6.47;100.00;102526.75;5207523;28;20029;-71
2022/04/27 05:56:12;;;;;;;34.00;16.55;;;;;;;7.08;100.00;102519.19;5207077;28;20174;-70
2022/04/27 05:58:44;;;;;;;29.17;15.30;;;;;;;7.76;100.00;102521.66;5207036;28;20025;-70
2022/04/27 06:01:15;;;;;;;31.70;15.85;;;;;;;8.48;100.00;102520.09;5206578;28;20064;-70
2022/04/27 06:03:46;;;;;;;28.10;15.32;;;;;;;9.01;100.00;102528.63;5207018;28;20554;-71
2022/04/27 06:06:17;;;;;;;30.52;14.52;;;;;;;9.66;100.00;102521.03;5206126;28;20133;-71
2022/04/27 06:08:48;;;;;;;30.50;13.35;;;;;;;10.21;100.00;102528.22;5205601;28;20402;-70
2022/04/27 06:11:19;;;;;;;29.98;15.68;;;;;;;10.27;100.00;102521.56;5206543;28;20029;-70
2022/04/27 06:13:50;;;;;;;25.95;15.00;;;;;;;10.59;100.00;102524.28;5206376;28;20120;-70
2022/04/27 06:16:23;;;;;;;31.55;14.00;;;;;;;11.03;100.00;102534.03;5206411;28;20094;-71
2022/04/27 06:18:53;;;;;;;21.00;12.85;;;;;;;11.08;100.00;102530.97;5205970;28;20025;-69
2022/04/27 06:21:24;;;;;;;24.05;12.50;;;;;;;11.41;100.00;102535.34;5206345;28;20032;-70
2022/04/27 06:23:54;;;;;;;21.35;12.70;;;;;;;11.68;100.00;102532.97;5206421;28;20032;-70
2022/04/27 06:26:25;;;;;;;21.05;12.85;;;;;;;11.81;100.00;102531.91;5206228;28;20032;-70
2022/04/27 06:28:56;;;;;;;18.58;11.85;;;;;;;11.93;100.00;102539.78;5206202;28;20464;-70
2022/04/27 06:31:27;;;;;;;17.48;11.65;;;;;;;12.24;100.00;102541.63;5205868;28;20060;-70
2022/04/27 06:33:58;;;;;;;21.70;11.18;;;;;;;12.55;100.00;102545.09;5206265;28;20018;-70
2022/04/27 06:36:28;;;;;;;18.00;11.85;;;;;;;12.76;100.00;102545.88;5197844;28;20022;-70
2022/04/27 06:38:59;;;;;;;20.85;12.00;;;;;;;13.10;100.00;102548.16;5194202;28;20502;-70
2022/04/27 06:41:29;;;;;;;26.02;11.95;;;;;;;13.40;100.00;102553.47;5199447;28;20441;-70
2022/04/27 06:44:00;;;;;;;22.92;11.15;;;;;;;13.65;100.00;102556.53;5198065;28;20057;-70
2022/04/27 06:46:30;;;;;;;22.60;11.25;;;;;;;13.92;100.00;102553.06;5202211;28;20503;-70
2022/04/27 06:49:00;;;;;;;21.00;10.90;;;;;;;14.10;100.00;102559.38;5203782;28;20025;-71
2022/04/27 06:51:31;;;;;;;18.70;10.25;;;;;;;14.31;100.00;102567.28;5203255;28;20463;-70
2022/04/27 06:54:01;;;;;;;14.95;10.13;;;;;;;14.51;100.00;102568.06;5203098;28;20626;-71
2022/04/27 06:56:32;;;;;;;19.90;10.40;;;;;;;14.66;100.00;102563.84;5202881;28;20061;-71
2022/04/27 06:59:02;;;;;;;19.58;10.05;;;;;;;14.68;100.00;102561.84;5203314;28;20075;-70
2022/04/27 07:01:33;;;;;;;16.40;9.85;;;;;;;15.02;100.00;102572.00;5203127;28;20021;-71
2022/04/27 07:04:08;;;;;;;19.95;10.85;;;;;;;15.07;100.00;102561.56;5202725;28;20140;-71
2022/04/27 07:06:39;;;;;;;16.83;10.18;;;;;;;15.09;100.00;102561.41;5203251;28;20041;-71
2022/04/27 07:09:11;;;;;;;20.60;9.73;;;;;;;15.28;100.00;102575.63;5202675;28;20106;-71
2022/04/27 07:11:41;;;;;;;17.73;10.32;;;;;;;15.58;100.00;102572.66;5203120;28;20404;-71
2022/04/27 07:14:15;;;;;;;19.30;10.02;;;;;;;15.78;100.00;102575.03;5201873;28;20017;-71
2022/04/27 07:16:46;;;;;;;14.85;9.65;;;;;;;15.96;95.96;102582.25;5202266;28;20104;-71
2022/04/27 07:19:17;;;;;;;19.98;9.27;;;;;;;15.93;96.33;102577.16;5201849;28;20109;-71
2022/04/27 07:21:48;;;;;;;15.50;9.75;;;;;;;15.89;88.46;102583.91;5203075;28;20591;-71
2022/04/27 07:24:20;;;;;;;18.58;9.07;;;;;;;15.84;89.75;102580.81;5201798;28;20025;-71
2022/04/27 07:26:51;;;;;;;17.60;9.50;;;;;;;16.03;91.13;102591.44;5202486;28;20104;-71
2022/04/27 07:29:22;;;;;;;20.48;8.88;;;;;;;15.33;84.06;102593.25;5202362;28;20104;-70
2022/04/27 07:31:52;;;;;;;17.88;9.82;;;;;;;15.84;91.36;102587.06;5202029;28;20036;-71
2022/04/27 07:34:23;;;;;;;15.65;8.43;;;;;;;16.07;91.74;102587.41;5201431;28;20030;-71
2022/04/27 07:36:54;;;;;;;15.00;8.52;;;;;;;16.37;88.01;102580.63;5197243;28;20435;-71
2022/04/27 07:39:24;;;;;;;14.93;7.95;;;;;;;16.44;81.16;102580.81;5193439;28;20399;-71
2022/04/27 07:41:55;;;;;;;21.02;9.48;;;;;;;16.33;80.18;102587.38;5202089;28;20025;-72
2022/04/27 07:44:26;;;;;;;15.55;8.02;;;;;;;16.40;78.91;102588.41;5199949;28;20037;-71
2022/04/27 07:46:56;;;;;;;12.10;7.05;;;;;;;15.83;75.73;102603.47;5201964;28;20100;-71
2022/04/27 07:49:27;;;;;;;14.63;7.40;;;;;;;16.08;76.69;102599.09;5201904;28;20568;-71
2022/04/27 07:51:59;;;;;;;18.23;7.45;;;;;;;16.17;77.31;102598.13;5202078;28;20479;-71
2022/04/27 07:54:29;;;;;;;16.60;6.70;;;;;;;16.30;73.90;102599.34;5200784;28;20014;-71
2022/04/27 07:57:00;;;;;;;9.85;6.18;;;;;;;16.32;75.99;102601.94;5201898;28;20033;-71
2022/04/27 07:59:30;;;;;;;10.73;6.20;;;;;;;16.68;70.03;102604.44;5201529;28;20180;-71
2022/04/27 08:02:01;;;;;;;9.10;6.10;;;;;;;16.52;68.51;102597.13;5202229;28;20402;-71
2022/04/27 08:04:31;;;;;;;10.32;6.60;;;;;;;17.01;72.25;102605.41;5200278;28;20530;-71
2022/04/27 08:07:02;;;;;;;13.75;6.40;;;;;;;17.67;70.92;102598.16;5201105;28;20040;-71
2022/04/27 08:09:32;;;;;;;10.45;6.18;;;;;;;18.19;68.83;102604.06;5201520;28;20029;-71
2022/04/27 08:12:03;;;;;;;13.07;6.07;;;;;;;18.22;63.34;102606.41;5201771;28;20036;-71
2022/04/27 08:14:35;;;;;;;14.40;6.18;;;;;;;18.22;63.53;102608.28;5200558;28;20014;-71
2022/04/27 08:17:06;;;;;;;9.93;4.65;;;;;;;18.26;62.05;102612.38;5201679;28;20391;-72
2022/04/27 08:19:36;;;;;;;12.07;5.55;;;;;;;18.53;61.94;102605.66;5200853;28;20017;-71
2022/04/27 08:22:08;;;;;;;10.88;4.20;;;;;;;18.06;56.84;102610.03;5201267;28;20112;-72
2022/04/27 08:24:40;;;;;;;9.82;5.50;;;;;;;17.61;58.09;102614.13;5200873;28;20485;-71
2022/04/27 08:27:10;;;;;;;12.50;5.22;;;;;;;17.54;59.56;102612.28;5200989;28;20037;-71
2022/04/27 08:29:41;;;;;;;19.08;5.97;;;;;;;18.00;59.93;102618.88;5201387;28;20398;-72
2022/04/27 08:32:11;;;;;;;12.15;4.60;;;;;;;17.92;57.50;102610.72;5200445;28;20454;-71
2022/04/27 08:34:41;;;;;;;23.92;5.47;;;;;;;18.22;56.08;102609.13;5199614;28;20025;-72
2022/04/27 08:37:12;;;;;;;9.85;5.45;;;;;;;17.78;58.24;102615.00;5194061;28;20041;-71
2022/04/27 08:39:42;;;;;;;8.43;4.85;;;;;;;18.16;58.76;102612.56;5195222;28;20154;-71
2022/04/27 08:42:13;;;;;;;13.23;5.00;;;;;;;19.01;56.66;102610.00;5201249;28;20033;-71
2022/04/27 08:44:43;;;;;;;12.77;5.25;;;;;;;18.56;57.86;102608.84;5198515;28;20041;-71
2022/04/27 08:47:14;;;;;;;8.40;4.35;;;;;;;19.66;51.26;102617.72;5201226;28;20040;-71
2022/04/27 08:49:45;;;;;;;6.43;4.45;;;;;;;18.73;52.85;102617.00;5201115;28;20091;-71
2022/04/27 08:52:16;;;;;;;6.93;4.60;;;;;;;17.95;54.10;102623.13;5200857;28;20376;-71
2022/04/27 08:54:48;;;;;;;9.38;4.60;;;;;;;17.17;53.62;102631.72;5200658;28;20426;-71
2022/04/27 08:57:19;;;;;;;8.50;4.13;;;;;;;18.14;55.41;102616.47;5200555;28;20033;-71
2022/04/27 08:59:50;;;;;;;13.45;4.88;;;;;;;18.21;54.00;102621.03;5201208;28;20103;-72
2022/04/27 09:02:38;;;;;;;7.25;4.07;;;;;;;18.57;55.59;102617.84;5200788;28;20430;-70
2022/04/27 09:05:24;;;;;;;6.93;3.88;;;;;;;18.99;52.93;102619.41;5200234;28;20037;-71
2022/04/27 09:07:56;;;;;;;9.68;4.00;;;;;;;18.87;48.24;102618.94;5200942;28;20112;-71
2022/04/27 09:10:27;;;;;;;8.65;4.38;;;;;;;18.77;50.38;102626.47;5200883;28;20101;-71
2022/04/27 09:12:57;;;;;;;10.23;4.22;;;;;;;18.41;50.33;102624.19;5200790;28;20117;-71
2022/04/27 09:15:28;;;;;;;6.20;3.30;;;;;;;18.25;50.80;102627.81;5190367;28;20013;-71
2022/04/27 09:21:14;;;;;;;7.43;3.42;;;;;;;18.16;47.79;102618.00;5204835;28;20049;-71
2022/04/27 09:23:46;;;;;;;6.75;3.58;;;;;;;17.98;51.89;102617.38;5204711;28;20056;-72
2022/04/27 09:26:19;;;;;;;7.28;3.90;;;;;;;18.50;51.08;102619.59;5204015;28;20036;-72
2022/04/27 09:28:50;;;;;;;7.03;4.20;;;;;;;18.22;48.83;102616.44;5204768;28;20109;-71
2022/04/27 09:31:37;;;;;;;5.80;3.60;;;;;;;19.47;48.20;102614.63;5204728;28;20025;-71
2022/04/27 09:34:27;;;;;;;13.07;4.40;;;;;;;19.72;47.83;102621.59;5204713;28;20102;-72
2022/04/27 09:37:17;;;;;;;11.15;4.90;;;;;;;19.41;49.36;102614.31;5204155;28;20060;-71
2022/04/27 09:40:01;;;;;;;11.88;4.78;;;;;;;19.42;48.90;102624.19;5204275;28;20414;-71
2022/04/27 09:42:34;;;;;;;8.32;4.57;;;;;;;19.90;47.82;102624.00;5204498;28;20391;-71
2022/04/27 09:45:19;;;;;;;7.47;4.13;;;;;;;20.19;42.74;102623.19;5202194;28;20029;-71
2022/04/27 09:50:58;;;;;;;7.88;5.28;;;;;;;19.13;51.71;102619.47;5204480;28;20026;-71
2022/04/27 09:53:30;;;;;;;6.30;4.53;;;;;;;19.56;47.69;102619.81;5204109;28;20646;-71
2022/04/27 09:56:02;;;;;;;8.75;5.35;;;;;;;19.46;47.42;102612.94;5203992;28;20017;-71
2022/04/27 09:58:34;;;;;;;11.27;5.70;;;;;;;20.14;44.47;102615.56;5204280;28;20025;-71
2022/04/27 10:01:04;;;;;;;8.50;4.80;;;;;;;19.68;49.73;102614.84;5203958;28;20030;-71
2022/04/27 10:03:36;;;;;;;7.53;4.50;;;;;;;20.03;48.53;102615.16;5203790;28;20383;-71
2022/04/27 10:06:07;;;;;;;9.23;4.50;;;;;;;20.24;42.59;102614.44;5203613;28;20136;-70
2022/04/27 10:08:40;;;;;;;8.65;5.20;;;;;;;19.87;43.86;102608.84;5204291;28;20029;-72
2022/04/27 10:11:12;;;;;;;6.20;4.15;;;;;;;19.11;47.19;102607.91;5203921;28;20542;-71
2022/04/27 10:13:43;;;;;;;8.43;5.18;;;;;;;18.45;49.40;102605.69;5203877;28;20025;-71
2022/04/27 10:16:16;;;;;;;8.77;5.22;;;;;;;18.00;53.85;102605.28;5200904;28;20245;-71
2022/04/27 10:18:47;;;;;;;9.65;4.80;;;;;;;17.99;53.94;102603.59;5204098;28;20502;-71
2022/04/27 10:24:42;;;;;;;8.35;5.18;;;;;;;18.80;48.56;102607.09;5193031;28;20030;-71
2022/04/27 10:27:28;;;;;;;8.93;5.53;;;;;;;18.69;50.82;102594.75;5203056;28;20513;-70
2022/04/27 10:29:59;;;;;;;13.77;5.13;;;;;;;18.99;50.95;102595.75;5203960;28;20398;-71
2022/04/27 10:32:42;;;;;;;9.68;5.40;;;;;;;19.17;49.99;102591.91;5204153;28;20453;-71
2022/04/27 10:35:14;;;;;;;8.07;5.30;;;;;;;18.71;49.82;102586.41;5202615;28;20018;-71
2022/04/27 10:38:05;;;;;;;11.43;6.28;;;;;;;18.75;54.08;102594.03;5192182;28;20029;-71
2022/04/27 10:40:41;;;;;;;11.50;6.55;;;;;;;18.68;47.74;102595.78;5191128;28;20024;-71
2022/04/27 10:43:27;;;;;;;11.30;6.32;;;;;;;18.80;51.84;102593.50;5203358;28;20033;-71
2022/04/27 10:45:59;;;;;;;13.85;6.03;;;;;;;18.50;48.70;102586.97;5201864;28;20053;-72
2022/04/27 10:48:48;;;;;;;10.82;5.75;;;;;;;18.96;46.94;102587.09;5203340;28;20545;-71
2022/04/27 10:51:20;;;;;;;10.38;6.20;;;;;;;19.07;48.70;102589.41;5203217;28;20025;-71
2022/04/27 10:53:51;;;;;;;10.10;6.07;;;;;;;19.36;47.28;102585.97;5202725;28;20064;-72
2022/04/27 10:56:22;;;;;;;13.90;6.28;;;;;;;18.94;50.41;102584.56;5203138;28;20037;-71
2022/04/27 10:58:53;;;;;;;11.73;6.20;;;;;;;18.46;49.21;102583.75;5203567;28;20025;-71
2022/04/27 11:01:25;;;;;;;12.18;6.15;;;;;;;18.63;51.07;102579.13;5203042;28;20040;-71
2022/04/27 11:03:57;;;;;;;10.60;6.40;;;;;;;19.00;48.72;102580.28;5202711;28;20044;-71
2022/04/27 11:06:47;;;;;;;13.45;6.55;;;;;;;18.36;48.59;102585.84;5202920;28;20099;-71
2022/04/27 11:09:44;;;;;;;8.07;6.47;;;;;;;17.54;50.20;102585.13;5201894;28;20033;-71
2022/04/27 11:12:14;;;;;;;10.52;6.65;;;;;;;17.23;51.78;102580.38;5202797;28;20017;-71
2022/04/27 11:14:45;;;;;;;12.50;6.53;;;;;;;17.15;51.78;102574.09;5201563;28;20156;-71
2022/04/27 11:17:29;;;;;;;11.70;7.80;;;;;;;17.18;55.51;102582.75;5202861;28;20108;-71
2022/04/27 11:20:00;;;;;;;10.10;6.68;;;;;;;17.81;54.41;102583.94;5203096;28;20021;-71
2022/04/27 11:22:48;;;;;;;10.65;6.57;;;;;;;18.13;49.38;102579.47;5202425;28;20051;-70
2022/04/27 11:25:39;;;;;;;8.50;6.53;;;;;;;18.00;47.72;102575.44;5201540;28;20112;-71
2022/04/27 11:28:11;;;;;;;14.35;7.97;;;;;;;17.53;49.39;102586.16;5202528;28;20190;-71
2022/04/27 11:30:42;;;;;;;8.57;6.53;;;;;;;17.53;53.66;102575.31;5202701;28;20025;-71
2022/04/27 11:33:16;;;;;;;14.70;7.03;;;;;;;18.02;57.20;102575.25;5202382;28;20544;-71
2022/04/27 11:35:49;;;;;;;16.05;6.85;;;;;;;18.46;51.69;102570.16;5202130;28;20100;-71
2022/04/27 11:38:21;;;;;;;11.48;6.90;;;;;;;18.54;50.24;102572.03;5189479;28;20017;-71
2022/04/27 11:40:52;;;;;;;16.17;8.23;;;;;;;18.78;51.58;102580.09;5202448;28;20083;-71
2022/04/27 11:43:25;;;;;;;14.57;8.05;;;;;;;18.81;49.21;102577.00;5202308;28;20479;-71
2022/04/27 11:45:55;;;;;;;12.88;7.35;;;;;;;19.02;50.82;102572.78;5199926;28;20029;-71
2022/04/27 11:49:00;;;;;;;10.65;6.63;;;;;;;18.75;52.51;102577.72;5202525;28;20040;-71
2022/04/27 11:51:35;;;;;;;19.33;7.60;;;;;;;18.40;49.47;102572.75;5202198;28;20056;-71
2022/04/27 11:54:06;;;;;;;14.13;7.25;;;;;;;17.88;51.49;102575.97;5201390;28;20029;-71
2022/04/27 11:56:39;;;;;;;14.70;8.60;;;;;;;17.13;50.18;102576.97;5200736;28;20032;-70
2022/04/27 11:59:09;;;;;;;17.75;8.23;;;;;;;17.95;53.72;102576.97;5202021;28;20032;-70
2022/04/27 12:01:50;;;;;;;12.93;7.32;;;;;;;18.30;49.93;102570.25;5202065;28;20057;-71
2022/04/27 12:04:21;;;;;;;14.50;7.63;;;;;;;17.86;51.47;102566.13;5201117;28;20487;-70